createdAt,value
2022-12-13T00:00:35.297Z,85.57
2022-12-13T00:01:35.315Z,85.39
2022-12-13T00:02:35.335Z,84.52
2022-12-13T00:03:35.293Z,84.83
2022-12-13T00:04:35.247Z,84.41
2022-12-13T00:05:35.251Z,84.62
2022-12-13T00:06:35.272Z,84.72
2022-12-13T00:07:35.234Z,84.72
2022-12-13T00:08:35.223Z,84.62
2022-12-13T00:09:35.201Z,84.76
2022-12-13T00:10:35.218Z,84.66
2022-12-13T00:11:35.219Z,84.55
2022-12-13T00:12:35.207Z,84.76
2022-12-13T00:13:35.166Z,84.13
2022-12-13T00:14:35.158Z,84.59
2022-12-13T00:15:35.145Z,84.74
2022-12-13T00:16:35.156Z,85.01
2022-12-13T00:17:35.151Z,85.11
2022-12-13T00:18:35.120Z,85.22
2022-12-13T00:19:35.125Z,85.11
2022-12-13T00:20:35.109Z,85.11
2022-12-13T00:21:35.082Z,85.33
2022-12-13T00:22:35.079Z,85.01
2022-12-13T00:23:35.091Z,85.22
2022-12-13T00:24:35.096Z,84.59
2022-12-13T00:25:35.054Z,85.01
2022-12-13T00:26:35.050Z,85.33
2022-12-13T00:27:35.038Z,84.91
2022-12-13T00:28:35.026Z,85.01
2022-12-13T00:29:35.049Z,85.01
2022-12-13T00:30:35.044Z,85.11
2022-12-13T00:32:37.000Z,85.47
2022-12-13T00:33:35.021Z,85.58
2022-12-13T00:34:34.984Z,85.83
2022-12-13T00:35:34.957Z,85.72
2022-12-13T00:36:34.967Z,86.46
2022-12-13T00:37:34.942Z,86.99
2022-12-13T00:38:34.926Z,86.10
2022-12-13T00:39:34.967Z,85.68
2022-12-13T00:40:34.922Z,85.58
2022-12-13T00:41:34.906Z,85.79
2022-12-13T00:42:34.909Z,85.43
2022-12-13T00:43:34.875Z,85.79
2022-12-13T00:44:34.907Z,85.64
2022-12-13T00:45:34.870Z,85.26
2022-12-13T00:46:34.884Z,85.16
2022-12-13T00:47:34.850Z,85.36
2022-12-13T00:48:34.845Z,84.84
2022-12-13T00:49:34.889Z,84.42
2022-12-13T00:50:34.824Z,83.89
2022-12-13T00:51:34.834Z,84.63
2022-12-13T00:52:34.806Z,84.63
2022-12-13T00:53:34.796Z,85.05
2022-12-13T00:54:34.780Z,85.36
2022-12-13T00:55:34.783Z,85.16
2022-12-13T00:56:34.798Z,85.09
2022-12-13T00:57:34.757Z,85.30
2022-12-13T00:58:34.760Z,86.15
2022-12-13T00:59:34.753Z,86.78
2022-12-13T01:00:34.737Z,86.67
2022-12-13T01:01:34.756Z,86.57
2022-12-13T01:02:34.715Z,86.88
2022-12-13T01:03:34.747Z,86.78
2022-12-13T01:04:34.710Z,86.46
2022-12-13T01:06:13.272Z,86.21
2022-12-13T01:06:36.704Z,85.93
2022-12-13T01:07:34.661Z,85.79
2022-12-13T01:08:34.662Z,85.68
2022-12-13T01:09:34.641Z,84.98
2022-12-13T01:10:34.656Z,84.67
2022-12-13T01:11:34.631Z,85.09
2022-12-13T01:12:34.607Z,84.45
2022-12-13T01:13:34.606Z,84.88
2022-12-13T01:14:34.601Z,85.05
2022-12-13T01:15:34.633Z,84.63
2022-12-13T01:16:34.619Z,84.52
2022-12-13T01:17:34.571Z,84.63
2022-12-13T01:18:34.552Z,84.10
2022-12-13T01:19:34.571Z,83.89
2022-12-13T01:20:34.538Z,83.26
2022-12-13T01:21:34.530Z,83.04
2022-12-13T01:22:34.556Z,83.68
2022-12-13T01:23:34.507Z,83.78
2022-12-13T01:24:34.496Z,83.93
2022-12-13T01:25:34.500Z,83.93
2022-12-13T01:26:34.474Z,84.39
2022-12-13T01:27:34.495Z,84.60
2022-12-13T01:28:34.472Z,84.84
2022-12-13T01:29:34.455Z,85.48
2022-12-13T01:30:34.485Z,85.66
2022-12-13T01:31:34.436Z,85.80
2022-12-13T01:32:34.458Z,84.70
2022-12-13T01:33:34.413Z,86.08
2022-12-13T01:34:34.426Z,85.55
2022-12-13T01:35:34.405Z,85.02
2022-12-13T01:36:38.214Z,85.44
2022-12-13T01:37:37.570Z,85.02
2022-12-13T01:38:37.599Z,85.34
2022-12-13T01:39:37.977Z,85.66
2022-12-13T01:40:38.591Z,85.86
2022-12-13T01:41:34.345Z,85.44
2022-12-13T01:42:34.338Z,85.66
2022-12-13T01:43:34.331Z,86.43
2022-12-13T01:44:34.496Z,86.43
2022-12-13T01:45:34.304Z,87.03
2022-12-13T01:46:34.392Z,86.92
2022-12-13T01:47:34.312Z,87.13
2022-12-13T01:48:34.279Z,85.76
2022-12-13T01:49:34.283Z,85.34
2022-12-13T01:50:34.263Z,85.55
2022-12-13T01:51:34.247Z,85.76
2022-12-13T01:52:34.251Z,85.34
2022-12-13T01:53:34.223Z,85.55
2022-12-13T01:54:34.504Z,85.86
2022-12-13T01:55:34.215Z,85.23
2022-12-13T01:56:35.232Z,85.23
2022-12-13T01:57:34.195Z,85.59
2022-12-13T01:58:34.182Z,85.80
2022-12-13T01:59:34.187Z,86.33
2022-12-13T02:00:34.159Z,86.01
2022-12-13T02:01:34.201Z,85.80
2022-12-13T02:02:34.167Z,85.97
2022-12-13T02:03:34.135Z,86.40
2022-12-13T02:04:34.205Z,85.76
2022-12-13T02:05:34.165Z,85.86
2022-12-13T02:06:34.148Z,85.86
2022-12-13T02:07:34.101Z,85.66
2022-12-13T02:08:35.823Z,85.13
2022-12-13T02:09:34.090Z,84.81
2022-12-13T02:10:34.069Z,85.23
2022-12-13T02:11:34.073Z,85.06
2022-12-13T02:12:34.096Z,85.38
2022-12-13T02:13:34.064Z,85.48
2022-12-13T02:14:34.045Z,85.48
2022-12-13T02:15:34.046Z,85.48
2022-12-13T02:16:34.029Z,84.84
2022-12-13T02:17:34.031Z,85.06
2022-12-13T02:18:34.001Z,85.27
2022-12-13T02:19:33.989Z,85.16
2022-12-13T02:20:33.978Z,85.38
2022-12-13T02:21:33.990Z,85.16
2022-12-13T02:22:33.979Z,85.59
2022-12-13T02:23:33.962Z,85.38
2022-12-13T02:24:33.966Z,85.94
2022-12-13T02:25:33.966Z,85.59
2022-12-13T02:26:33.932Z,85.80
2022-12-13T02:27:33.945Z,85.48
2022-12-13T02:28:34.930Z,85.59
2022-12-13T02:29:33.912Z,85.16
2022-12-13T02:30:33.929Z,85.16
2022-12-13T02:31:33.904Z,85.13
2022-12-13T02:32:33.881Z,84.84
2022-12-13T02:33:33.866Z,84.70
2022-12-13T02:34:34.270Z,84.81
2022-12-13T02:35:33.896Z,84.17
2022-12-13T02:36:36.317Z,83.86
2022-12-13T02:37:33.824Z,84.22
2022-12-13T02:38:33.827Z,84.84
2022-12-13T02:39:33.807Z,85.16
2022-12-13T02:40:33.812Z,84.64
2022-12-13T02:41:33.811Z,84.25
2022-12-13T02:42:33.777Z,84.74
2022-12-13T02:43:34.109Z,84.74
2022-12-13T02:44:33.770Z,84.25
2022-12-13T02:45:33.765Z,83.47
2022-12-13T02:46:33.788Z,83.72
2022-12-13T02:47:33.727Z,83.83
2022-12-13T02:48:33.705Z,83.83
2022-12-13T02:49:33.724Z,83.83
2022-12-13T02:50:33.710Z,83.94
2022-12-13T02:51:33.734Z,84.00
2022-12-13T02:52:33.696Z,84.42
2022-12-13T02:53:33.982Z,84.67
2022-12-13T02:54:33.681Z,85.10
2022-12-13T02:55:33.667Z,85.63
2022-12-13T02:56:33.686Z,85.77
2022-12-13T02:57:33.635Z,85.52
2022-12-13T02:58:33.643Z,85.35
2022-12-13T02:59:33.622Z,86.13
2022-12-13T03:00:33.610Z,86.13
2022-12-13T03:01:39.989Z,86.13
2022-12-13T03:02:34.699Z,86.30
2022-12-13T03:03:33.694Z,85.77
2022-12-13T03:04:41.103Z,85.66
2022-12-13T03:05:33.547Z,85.10
2022-12-13T03:06:34.647Z,84.46
2022-12-13T03:07:33.520Z,84.78
2022-12-13T03:08:33.519Z,85.10
2022-12-13T03:09:33.513Z,85.21
2022-12-13T03:10:33.521Z,85.52
2022-12-13T03:11:33.480Z,85.52
2022-12-13T03:12:33.476Z,85.21
2022-12-13T03:13:33.473Z,84.67
2022-12-13T03:14:33.506Z,84.67
2022-12-13T03:15:33.471Z,84.96
2022-12-13T03:16:33.435Z,85.39
2022-12-13T03:17:33.428Z,85.88
2022-12-13T03:18:33.414Z,86.44
2022-12-13T03:19:33.411Z,86.09
2022-12-13T03:20:33.419Z,86.02
2022-12-13T03:21:33.400Z,86.51
2022-12-13T03:22:33.392Z,86.44
2022-12-13T03:23:33.400Z,85.35
2022-12-13T03:24:33.379Z,85.56
2022-12-13T03:25:33.374Z,85.24
2022-12-13T03:26:33.377Z,85.03
2022-12-13T03:27:33.339Z,85.35
2022-12-13T03:28:33.352Z,85.60
2022-12-13T03:29:33.336Z,85.81
2022-12-13T03:30:33.318Z,85.81
2022-12-13T03:31:33.335Z,86.13
2022-12-13T03:32:33.297Z,85.60
2022-12-13T03:33:33.326Z,85.35
2022-12-13T03:34:44.585Z,85.49
2022-12-13T03:35:45.156Z,85.56
2022-12-13T03:36:34.267Z,85.56
2022-12-13T03:37:33.247Z,85.28
2022-12-13T03:38:33.253Z,84.96
2022-12-13T03:39:33.444Z,85.28
2022-12-13T03:40:33.228Z,84.75
2022-12-13T03:41:33.211Z,85.28
2022-12-13T03:42:33.202Z,85.39
2022-12-13T03:43:33.212Z,85.77
2022-12-13T03:44:33.209Z,85.46
2022-12-13T03:45:33.180Z,84.92
2022-12-13T03:46:33.202Z,84.36
2022-12-13T03:47:33.155Z,83.76
2022-12-13T03:48:33.140Z,83.87
2022-12-13T03:49:35.093Z,84.04
2022-12-13T03:50:33.130Z,83.62
2022-12-13T03:51:33.119Z,83.72
2022-12-13T03:52:33.121Z,82.88
2022-12-13T03:53:34.567Z,82.56
2022-12-13T03:54:33.325Z,82.77
2022-12-13T03:55:33.112Z,82.92
2022-12-13T03:56:33.071Z,82.67
2022-12-13T03:57:33.062Z,82.88
2022-12-13T03:58:35.321Z,83.30
2022-12-13T03:59:33.069Z,82.45
2022-12-13T04:00:33.031Z,82.14
2022-12-13T04:01:33.060Z,82.56
2022-12-13T04:02:33.018Z,83.51
2022-12-13T04:03:33.003Z,82.56
2022-12-13T04:04:33.021Z,82.77
2022-12-13T04:05:32.992Z,83.51
2022-12-13T04:06:33.386Z,83.72
2022-12-13T04:07:34.612Z,83.62
2022-12-13T04:08:33.028Z,83.62
2022-12-13T04:09:32.963Z,83.62
2022-12-13T04:10:32.998Z,83.51
2022-12-13T04:11:32.935Z,83.40
2022-12-13T04:12:32.930Z,83.09
2022-12-13T04:13:32.941Z,83.02
2022-12-13T04:14:32.909Z,82.81
2022-12-13T04:15:32.892Z,82.92
2022-12-13T04:16:32.932Z,83.65
2022-12-13T04:17:32.881Z,83.80
2022-12-13T04:18:32.865Z,83.55
2022-12-13T04:19:32.876Z,84.29
2022-12-13T04:20:32.846Z,84.19
2022-12-13T04:21:32.854Z,84.19
2022-12-13T04:22:32.829Z,83.76
2022-12-13T04:23:32.814Z,83.48
2022-12-13T04:24:32.836Z,83.94
2022-12-13T04:25:32.798Z,84.26
2022-12-13T04:26:32.802Z,84.26
2022-12-13T04:27:32.802Z,84.61
2022-12-13T04:28:32.772Z,85.25
2022-12-13T04:29:34.687Z,85.78
2022-12-13T04:30:32.754Z,86.31
2022-12-13T04:31:32.806Z,86.21
2022-12-13T04:32:32.747Z,86.56
2022-12-13T04:33:32.833Z,86.66
2022-12-13T04:34:37.220Z,86.46
2022-12-13T04:35:32.704Z,86.60
2022-12-13T04:36:32.996Z,86.56
2022-12-13T04:37:33.678Z,86.66
2022-12-13T04:38:32.681Z,86.56
2022-12-13T04:39:34.328Z,86.52
2022-12-13T04:40:32.682Z,86.63
2022-12-13T04:41:34.441Z,86.52
2022-12-13T04:42:32.659Z,85.89
2022-12-13T04:43:32.683Z,85.68
2022-12-13T04:44:36.563Z,85.96
2022-12-13T04:45:33.641Z,85.14
2022-12-13T04:46:32.617Z,84.83
2022-12-13T04:47:32.632Z,84.26
2022-12-13T04:48:32.610Z,84.58
2022-12-13T04:49:32.577Z,84.58
2022-12-13T04:50:32.563Z,84.89
2022-12-13T04:51:33.562Z,84.47
2022-12-13T04:52:32.548Z,84.47
2022-12-13T04:53:32.580Z,84.83
2022-12-13T04:54:36.176Z,85.64
2022-12-13T04:55:32.512Z,85.32
2022-12-13T04:56:32.508Z,85.25
2022-12-13T04:57:32.500Z,85.36
2022-12-13T04:58:32.527Z,85.64
2022-12-13T04:59:32.495Z,85.32
2022-12-13T05:00:32.468Z,85.32
2022-12-13T05:01:32.518Z,85.64
2022-12-13T05:02:32.584Z,85.42
2022-12-13T05:03:32.460Z,85.42
2022-12-13T05:04:33.322Z,85.00
2022-12-13T05:05:33.445Z,84.26
2022-12-13T05:06:32.426Z,84.36
2022-12-13T05:07:32.418Z,84.47
2022-12-13T05:08:32.441Z,84.22
2022-12-13T05:09:32.422Z,83.91
2022-12-13T05:10:37.804Z,83.91
2022-12-13T05:11:35.388Z,83.37
2022-12-13T05:12:32.359Z,82.49
2022-12-13T05:13:32.363Z,82.85
2022-12-13T05:14:32.361Z,82.85
2022-12-13T05:15:32.353Z,82.95
2022-12-13T05:16:32.390Z,83.27
2022-12-13T05:17:32.314Z,83.37
2022-12-13T05:18:32.307Z,83.17
2022-12-13T05:19:32.295Z,82.53
2022-12-13T05:20:32.289Z,82.21
2022-12-13T05:21:32.285Z,82.32
2022-12-13T05:22:32.288Z,82.32
2022-12-13T05:23:32.265Z,83.17
2022-12-13T05:24:32.260Z,83.09
2022-12-13T05:25:32.235Z,83.94
2022-12-13T05:26:32.219Z,84.36
2022-12-13T05:27:32.275Z,84.79
2022-12-13T05:28:32.211Z,84.36
2022-12-13T05:29:32.192Z,84.26
2022-12-13T05:30:32.210Z,84.30
2022-12-13T05:31:32.267Z,84.41
2022-12-13T05:32:32.183Z,84.69
2022-12-13T05:33:32.174Z,84.51
2022-12-13T05:34:32.164Z,84.41
2022-12-13T05:35:32.178Z,84.36
2022-12-13T05:36:32.130Z,83.66
2022-12-13T05:37:34.758Z,84.19
2022-12-13T05:38:32.148Z,84.41
2022-12-13T05:39:32.160Z,84.72
2022-12-13T05:40:32.097Z,84.72
2022-12-13T05:41:32.086Z,84.83
2022-12-13T05:42:32.091Z,84.93
2022-12-13T05:43:42.320Z,84.66
2022-12-13T05:44:32.055Z,84.72
2022-12-13T05:45:32.303Z,84.51
2022-12-13T05:46:36.828Z,84.41
2022-12-13T05:47:32.044Z,84.61
2022-12-13T05:48:32.032Z,84.93
2022-12-13T05:49:32.236Z,84.23
2022-12-13T05:50:32.016Z,84.44
2022-12-13T05:51:32.032Z,85.18
2022-12-13T05:52:31.985Z,85.14
2022-12-13T05:53:31.984Z,84.61
2022-12-13T05:54:31.975Z,84.44
2022-12-13T05:55:31.980Z,84.55
2022-12-13T05:56:31.941Z,84.44
2022-12-13T05:57:31.967Z,84.55
2022-12-13T05:58:35.937Z,84.01
2022-12-13T05:59:31.942Z,83.91
2022-12-13T06:00:31.928Z,84.59
2022-12-13T06:01:31.943Z,84.59
2022-12-13T06:02:32.068Z,84.12
2022-12-13T06:03:32.013Z,84.38
2022-12-13T06:04:31.881Z,84.23
2022-12-13T06:05:31.868Z,83.84
2022-12-13T06:06:31.865Z,83.84
2022-12-13T06:07:31.873Z,83.95
2022-12-13T06:08:31.893Z,83.84
2022-12-13T06:09:31.823Z,84.27
2022-12-13T06:10:34.881Z,84.06
2022-12-13T06:11:32.648Z,83.84
2022-12-13T06:12:32.804Z,84.63
2022-12-13T06:13:32.595Z,85.22
2022-12-13T06:14:31.788Z,85.54
2022-12-13T06:15:34.790Z,84.91
2022-12-13T06:16:31.834Z,85.11
2022-12-13T06:17:31.846Z,84.86
2022-12-13T06:18:31.744Z,84.55
2022-12-13T06:19:31.747Z,84.48
2022-12-13T06:20:31.724Z,84.12
2022-12-13T06:21:41.258Z,83.81
2022-12-13T06:22:33.713Z,83.74
2022-12-13T06:23:31.720Z,83.91
2022-12-13T06:24:31.693Z,83.91
2022-12-13T06:25:32.236Z,83.91
2022-12-13T06:26:32.704Z,84.48
2022-12-13T06:27:31.661Z,83.95
2022-12-13T06:28:31.689Z,83.84
2022-12-13T06:29:31.643Z,84.06
2022-12-13T06:30:31.746Z,84.16
2022-12-13T06:31:31.664Z,83.95
2022-12-13T06:32:31.619Z,84.06
2022-12-13T06:33:31.609Z,84.38
2022-12-13T06:34:31.593Z,84.69
2022-12-13T06:35:35.266Z,84.16
2022-12-13T06:36:33.594Z,84.69
2022-12-13T06:37:31.606Z,84.69
2022-12-13T06:38:33.148Z,85.54
2022-12-13T06:39:32.711Z,85.43
2022-12-13T06:40:31.549Z,85.61
2022-12-13T06:41:32.353Z,84.91
2022-12-13T06:42:32.551Z,84.80
2022-12-13T06:43:31.520Z,84.48
2022-12-13T06:44:31.714Z,84.01
2022-12-13T06:45:31.497Z,84.27
2022-12-13T06:46:31.559Z,83.84
2022-12-13T06:47:32.589Z,84.16
2022-12-13T06:48:31.471Z,84.16
2022-12-13T06:49:32.381Z,84.41
2022-12-13T06:50:31.470Z,84.94
2022-12-13T06:51:33.094Z,85.47
2022-12-13T06:52:31.443Z,86.00
2022-12-13T06:53:31.427Z,85.72
2022-12-13T06:54:31.423Z,86.04
2022-12-13T06:55:31.429Z,85.61
2022-12-13T06:56:31.417Z,86.04
2022-12-13T06:57:31.390Z,86.25
2022-12-13T06:58:31.403Z,85.61
2022-12-13T06:59:31.367Z,85.58
2022-12-13T07:00:38.176Z,85.58
2022-12-13T07:01:36.761Z,85.16
2022-12-13T07:02:32.515Z,85.05
2022-12-13T07:03:31.394Z,85.16
2022-12-13T07:04:31.539Z,85.16
2022-12-13T07:05:31.332Z,85.05
2022-12-13T07:06:31.317Z,84.63
2022-12-13T07:07:31.299Z,84.48
2022-12-13T07:08:31.343Z,84.09
2022-12-13T07:09:31.286Z,84.09
2022-12-13T07:10:31.288Z,84.45
2022-12-13T07:11:31.254Z,84.91
2022-12-13T07:12:31.252Z,85.09
2022-12-13T07:13:31.261Z,85.19
2022-12-13T07:14:31.239Z,85.51
2022-12-13T07:15:31.257Z,85.61
2022-12-13T07:16:31.256Z,85.30
2022-12-13T07:17:31.870Z,84.98
2022-12-13T07:18:32.193Z,85.30
2022-12-13T07:19:35.223Z,85.51
2022-12-13T07:20:31.185Z,85.41
2022-12-13T07:21:31.216Z,85.51
2022-12-13T07:22:34.855Z,85.69
2022-12-13T07:23:31.137Z,85.58
2022-12-13T07:24:31.136Z,85.47
2022-12-13T07:25:32.132Z,85.16
2022-12-13T07:26:31.139Z,85.16
2022-12-13T07:27:31.132Z,84.56
2022-12-13T07:28:31.097Z,84.48
2022-12-13T07:29:31.093Z,85.13
2022-12-13T07:30:31.088Z,85.83
2022-12-13T07:31:31.116Z,85.51
2022-12-13T07:32:31.090Z,85.16
2022-12-13T07:33:31.053Z,84.63
2022-12-13T07:34:31.054Z,84.09
2022-12-13T07:35:31.038Z,84.27
2022-12-13T07:36:32.024Z,84.27
2022-12-13T07:37:31.329Z,83.74
2022-12-13T07:38:32.064Z,83.10
2022-12-13T07:39:31.020Z,83.38
2022-12-13T07:40:30.985Z,82.64
2022-12-13T07:41:31.054Z,82.25
2022-12-13T07:42:30.983Z,82.50
2022-12-13T07:43:30.965Z,82.61
2022-12-13T07:44:31.003Z,83.18
2022-12-13T07:45:30.947Z,83.32
2022-12-13T07:46:32.487Z,84.48
2022-12-13T07:47:30.940Z,84.48
2022-12-13T07:48:30.953Z,85.13
2022-12-13T07:49:30.926Z,85.55
2022-12-13T07:50:37.352Z,85.34
2022-12-13T07:51:31.897Z,85.34
2022-12-13T07:52:30.886Z,85.76
2022-12-13T07:53:33.206Z,85.69
2022-12-13T07:54:30.882Z,85.91
2022-12-13T07:55:33.222Z,85.97
2022-12-13T07:56:30.851Z,85.76
2022-12-13T07:57:30.833Z,85.76
2022-12-13T07:58:31.112Z,85.72
2022-12-13T07:59:30.844Z,85.13
2022-12-13T08:00:30.819Z,85.13
2022-12-13T08:01:30.863Z,85.02
2022-12-13T08:02:30.800Z,85.23
2022-12-13T08:03:30.812Z,84.91
2022-12-13T08:04:37.453Z,85.02
2022-12-13T08:05:38.324Z,85.09
2022-12-13T08:06:31.771Z,84.77
2022-12-13T08:07:30.735Z,84.34
2022-12-13T08:08:31.655Z,84.45
2022-12-13T08:09:30.763Z,83.85
2022-12-13T08:10:30.720Z,83.50
2022-12-13T08:11:30.714Z,83.85
2022-12-13T08:12:30.735Z,84.17
2022-12-13T08:13:30.694Z,84.13
2022-12-13T08:14:30.677Z,83.64
2022-12-13T08:15:31.706Z,83.85
2022-12-13T08:16:30.791Z,84.06
2022-12-13T08:17:30.654Z,84.17
2022-12-13T08:18:30.667Z,84.03
2022-12-13T08:19:30.662Z,83.28
2022-12-13T08:20:30.643Z,82.37
2022-12-13T08:21:53.290Z,82.54
2022-12-13T08:22:36.102Z,82.54
2022-12-13T08:23:30.605Z,82.33
2022-12-13T08:24:30.658Z,82.86
2022-12-13T08:25:30.583Z,82.97
2022-12-13T08:26:30.573Z,82.75
2022-12-13T08:27:30.583Z,82.93
2022-12-13T08:28:30.553Z,82.40
2022-12-13T08:29:34.371Z,82.50
2022-12-13T08:30:30.554Z,81.55
2022-12-13T08:31:34.016Z,81.59
2022-12-13T08:32:30.544Z,81.90
2022-12-13T08:33:30.519Z,82.97
2022-12-13T08:34:30.526Z,82.75
2022-12-13T08:35:34.012Z,83.60
2022-12-13T08:36:31.505Z,82.54
2022-12-13T08:37:30.462Z,82.65
2022-12-13T08:38:30.475Z,82.82
2022-12-13T08:39:30.474Z,83.03
2022-12-13T08:40:30.473Z,82.43
2022-12-13T08:41:34.464Z,82.86
2022-12-13T08:42:32.436Z,82.61
2022-12-13T08:43:30.414Z,83.03
2022-12-13T08:44:30.409Z,82.71
2022-12-13T08:45:30.423Z,82.29
2022-12-13T08:46:30.429Z,82.57
2022-12-13T08:47:30.393Z,82.86
2022-12-13T08:48:30.364Z,82.81
2022-12-13T08:49:30.378Z,82.39
2022-12-13T08:50:30.394Z,81.01
2022-12-13T08:51:35.612Z,79.28
2022-12-13T08:52:31.330Z,79.82
2022-12-13T08:53:40.667Z,78.44
2022-12-13T08:54:31.941Z,78.05
2022-12-13T08:55:32.274Z,78.65
2022-12-13T08:56:30.299Z,79.39
2022-12-13T08:57:30.289Z,78.72
2022-12-13T08:58:30.272Z,79.03
2022-12-13T08:59:30.271Z,78.93
2022-12-13T09:00:36.070Z,78.02
2022-12-13T09:01:31.282Z,77.59
2022-12-13T09:02:30.313Z,77.98
2022-12-13T09:03:30.226Z,77.38
2022-12-13T09:04:31.412Z,78.02
2022-12-13T09:06:02.618Z,78.33
2022-12-13T09:06:30.218Z,78.65
2022-12-13T09:07:30.246Z,78.33
2022-12-13T09:08:35.027Z,77.59
2022-12-13T09:09:31.186Z,78.33
2022-12-13T09:10:38.259Z,78.19
2022-12-13T09:11:34.965Z,77.87
2022-12-13T09:12:31.276Z,77.98
2022-12-13T09:13:31.544Z,77.66
2022-12-13T09:14:34.169Z,78.19
2022-12-13T09:15:34.008Z,78.19
2022-12-13T09:16:30.285Z,77.70
2022-12-13T09:17:30.280Z,78.26
2022-12-13T09:18:36.647Z,79.18
2022-12-13T09:19:36.956Z,79.71
2022-12-13T09:20:31.112Z,79.57
2022-12-13T09:21:32.222Z,79.64
2022-12-13T09:22:33.228Z,79.43
2022-12-13T09:23:30.289Z,78.37
2022-12-13T09:24:36.663Z,77.59
2022-12-13T09:25:36.792Z,77.45
2022-12-13T09:26:37.805Z,76.61
2022-12-13T09:27:31.018Z,75.09
2022-12-13T09:28:31.026Z,75.41
2022-12-13T09:29:29.991Z,75.20
2022-12-13T09:30:31.645Z,75.31
2022-12-13T09:31:30.063Z,75.02
2022-12-13T09:32:29.972Z,75.09
2022-12-13T09:33:31.334Z,75.20
2022-12-13T09:34:30.004Z,75.20
2022-12-13T09:35:30.022Z,75.20
2022-12-13T09:36:29.936Z,74.46
2022-12-13T09:37:29.923Z,73.40
2022-12-13T09:38:29.906Z,73.08
2022-12-13T09:39:29.909Z,72.42
2022-12-13T09:40:29.980Z,73.44
2022-12-13T09:41:29.921Z,73.72
2022-12-13T09:42:30.176Z,72.46
2022-12-13T09:43:32.743Z,71.90
2022-12-13T09:44:45.133Z,71.76
2022-12-13T09:45:32.022Z,71.26
2022-12-13T09:46:34.880Z,71.34
2022-12-13T09:47:35.438Z,71.23
2022-12-13T09:48:34.620Z,70.15
2022-12-13T09:49:34.880Z,70.47
2022-12-13T09:50:37.083Z,69.94
2022-12-13T09:51:41.203Z,70.04
2022-12-13T09:52:33.428Z,70.29
2022-12-13T09:53:33.410Z,71.23
2022-12-13T09:54:29.788Z,72.57
2022-12-13T09:55:30.273Z,72.89
2022-12-13T09:56:29.738Z,72.78
2022-12-13T09:57:31.253Z,71.52
2022-12-13T09:58:29.716Z,71.38
2022-12-13T09:59:29.741Z,71.59
2022-12-13T10:00:29.722Z,71.20
2022-12-13T10:01:29.754Z,72.47
2022-12-13T10:02:29.879Z,71.55
2022-12-13T10:03:29.687Z,71.34
2022-12-13T10:04:29.663Z,72.81
2022-12-13T10:05:37.247Z,72.53
2022-12-13T10:06:30.672Z,72.42
2022-12-13T10:07:29.615Z,72.88
2022-12-13T10:08:29.620Z,71.83
2022-12-13T10:09:29.649Z,72.17
2022-12-13T10:10:29.590Z,73.47
2022-12-13T10:11:31.756Z,74.11
2022-12-13T10:12:29.582Z,73.90
2022-12-13T10:13:29.590Z,74.01
2022-12-13T10:14:29.562Z,76.32
2022-12-13T10:15:29.586Z,75.06
2022-12-13T10:16:36.165Z,75.16
2022-12-13T10:17:29.545Z,74.39
2022-12-13T10:18:30.554Z,74.39
2022-12-13T10:19:30.253Z,74.07
2022-12-13T10:20:30.501Z,74.46
2022-12-13T10:21:29.483Z,75.10
2022-12-13T10:22:29.501Z,75.10
2022-12-13T10:23:47.075Z,75.10
2022-12-13T10:24:36.750Z,74.01
2022-12-13T10:25:30.466Z,73.97
2022-12-13T10:26:29.488Z,72.67
2022-12-13T10:27:29.458Z,71.83
2022-12-13T10:28:29.476Z,71.31
2022-12-13T10:29:29.420Z,72.05
2022-12-13T10:30:29.581Z,72.78
2022-12-13T10:31:30.478Z,71.31
2022-12-13T10:32:29.386Z,71.91
2022-12-13T10:33:29.379Z,72.33
2022-12-13T10:34:29.373Z,72.12
2022-12-13T10:35:29.403Z,73.38
2022-12-13T10:36:29.378Z,72.15
2022-12-13T10:37:29.351Z,72.47
2022-12-13T10:38:31.943Z,72.15
2022-12-13T10:39:29.341Z,72.67
2022-12-13T10:40:32.161Z,73.03
2022-12-13T10:41:29.332Z,74.19
2022-12-13T10:42:33.900Z,73.87
2022-12-13T10:43:30.297Z,74.37
2022-12-13T10:44:29.265Z,74.68
2022-12-13T10:45:29.309Z,74.05
2022-12-13T10:46:29.280Z,73.41
2022-12-13T10:47:29.258Z,74.05
2022-12-13T10:48:29.258Z,72.67
2022-12-13T10:49:30.273Z,72.92
2022-12-13T10:50:29.283Z,72.29
2022-12-13T10:51:29.218Z,73.97
2022-12-13T10:52:31.652Z,75.21
2022-12-13T10:53:29.223Z,74.99
2022-12-13T10:54:29.235Z,74.75
2022-12-13T10:55:30.220Z,73.91
2022-12-13T10:56:29.180Z,72.75
2022-12-13T10:57:29.178Z,72.36
2022-12-13T10:58:29.161Z,72.36
2022-12-13T10:59:29.207Z,72.33
2022-12-13T11:00:29.156Z,73.49
2022-12-13T11:01:29.175Z,72.57
2022-12-13T11:02:29.274Z,72.47
2022-12-13T11:03:29.115Z,73.83
2022-12-13T11:04:29.126Z,73.63
2022-12-13T11:05:29.080Z,74.26
2022-12-13T11:06:29.086Z,73.83
2022-12-13T11:07:29.089Z,73.80
2022-12-13T11:08:29.240Z,73.59
2022-12-13T11:09:29.086Z,72.64
2022-12-13T11:10:30.045Z,71.28
2022-12-13T11:11:29.058Z,71.62
2022-12-13T11:12:29.062Z,72.78
2022-12-13T11:13:29.017Z,73.94
2022-12-13T11:14:32.343Z,73.28
2022-12-13T11:15:28.994Z,72.96
2022-12-13T11:16:29.020Z,72.54
2022-12-13T11:17:28.989Z,71.59
2022-12-13T11:18:28.954Z,72.72
2022-12-13T11:19:28.994Z,73.70
2022-12-13T11:20:28.998Z,73.49
2022-12-13T11:21:28.963Z,73.91
2022-12-13T11:22:28.908Z,74.43
2022-12-13T11:23:28.918Z,73.88
2022-12-13T11:24:28.887Z,73.46
2022-12-13T11:25:28.901Z,73.98
2022-12-13T11:26:28.914Z,73.38
2022-12-13T11:27:28.904Z,74.75
2022-12-13T11:28:28.886Z,74.51
2022-12-13T11:29:28.881Z,73.66
2022-12-13T11:30:28.875Z,74.08
2022-12-13T11:31:28.900Z,74.29
2022-12-13T11:32:28.816Z,74.40
2022-12-13T11:33:28.830Z,74.61
2022-12-13T11:34:28.853Z,74.08
2022-12-13T11:35:28.803Z,74.61
2022-12-13T11:36:28.788Z,74.19
2022-12-13T11:37:28.769Z,73.88
2022-12-13T11:38:28.797Z,73.59
2022-12-13T11:39:28.769Z,72.72
2022-12-13T11:40:28.764Z,73.35
2022-12-13T11:41:31.663Z,72.37
2022-12-13T11:42:28.736Z,72.58
2022-12-13T11:43:28.730Z,72.58
2022-12-13T11:44:28.695Z,72.16
2022-12-13T11:45:28.736Z,72.16
2022-12-13T11:46:28.720Z,71.95
2022-12-13T11:47:28.671Z,71.95
2022-12-13T11:48:29.079Z,72.68
2022-12-13T11:49:28.646Z,72.37
2022-12-13T11:50:33.558Z,73.32
2022-12-13T11:51:28.635Z,73.24
2022-12-13T11:52:28.639Z,73.46
2022-12-13T11:53:29.120Z,73.56
2022-12-13T11:54:28.616Z,74.37
2022-12-13T11:55:28.625Z,74.68
2022-12-13T11:56:28.646Z,74.26
2022-12-13T11:57:28.589Z,74.12
2022-12-13T11:59:29.803Z,74.09
2022-12-13T12:00:33.682Z,74.12
2022-12-13T12:01:28.575Z,73.70
2022-12-13T12:02:28.677Z,73.67
2022-12-13T12:03:28.615Z,74.86
2022-12-13T12:04:28.519Z,74.02
2022-12-13T12:05:28.635Z,73.91
2022-12-13T12:06:28.493Z,73.81
2022-12-13T12:07:33.241Z,73.81
2022-12-13T12:08:43.172Z,74.22
2022-12-13T12:09:29.459Z,74.76
2022-12-13T12:10:28.496Z,73.94
2022-12-13T12:11:28.509Z,73.84
2022-12-13T12:12:28.461Z,74.16
2022-12-13T12:13:28.466Z,74.40
2022-12-13T12:14:28.501Z,75.56
2022-12-13T12:15:28.425Z,76.15
2022-12-13T12:16:28.528Z,75.42
2022-12-13T12:17:31.260Z,75.59
2022-12-13T12:18:28.871Z,75.07
2022-12-13T12:19:28.370Z,74.33
2022-12-13T12:20:28.421Z,74.65
2022-12-13T12:21:42.698Z,75.59
2022-12-13T12:22:30.341Z,75.07
2022-12-13T12:23:28.332Z,74.33
2022-12-13T12:24:28.358Z,74.37
2022-12-13T12:25:28.345Z,74.37
2022-12-13T12:26:28.340Z,74.86
2022-12-13T12:27:28.294Z,74.44
2022-12-13T12:28:28.782Z,74.76
2022-12-13T12:29:28.287Z,75.07
2022-12-13T12:30:28.252Z,75.17
2022-12-13T12:31:28.429Z,74.54
2022-12-13T12:32:28.253Z,74.76
2022-12-13T12:33:28.261Z,74.86
2022-12-13T12:34:28.269Z,74.02
2022-12-13T12:35:28.219Z,74.26
2022-12-13T12:36:30.205Z,74.89
2022-12-13T12:37:28.197Z,75.73
2022-12-13T12:38:28.737Z,75.49
2022-12-13T12:39:28.266Z,75.81
2022-12-13T12:40:40.097Z,75.38
2022-12-13T12:41:30.168Z,74.86
2022-12-13T12:42:28.155Z,74.96
2022-12-13T12:43:28.696Z,74.96
2022-12-13T12:44:30.864Z,74.96
2022-12-13T12:45:55.212Z,74.54
2022-12-13T12:46:30.151Z,74.33
2022-12-13T12:47:48.994Z,75.17
2022-12-13T12:48:52.020Z,75.56
2022-12-13T12:49:30.111Z,75.35
2022-12-13T12:50:28.080Z,75.24
2022-12-13T12:51:28.058Z,75.10
2022-12-13T12:52:28.096Z,75.00
2022-12-13T12:53:28.041Z,74.19
2022-12-13T12:54:32.302Z,74.51